Time;durP1;ratioP1;P1;durP2;ratioP2;P2;SDS_P1;SDS_P2;PMS_P1;PMS_P2;Temp;Humidity;BMP_temperature;BMP_pressure;BME280_temperature;BME280_humidity;BME280_pressure;Samples;Min_cycle;Max_cycle;Signal;HPM_P1;HPM_P2
2023/11/22 00:01:48;;;;;;;;;;;;;;;25.88;41.31;94263.25;4942643;28;9428;-61
2023/11/22 00:04:14;;;;;;;;;;;;;;;25.88;40.89;94268.78;4940346;28;9122;-61
2023/11/22 00:06:42;;;;;;;;;;;;;;;25.87;41.23;94264.53;4929165;28;8188;-61
2023/11/22 00:09:09;;;;;;;;;;;;;;;25.90;41.37;94263.50;4951269;28;7220;-61
2023/11/22 00:11:35;;;;;;;;;;;;;;;25.90;41.38;94274.53;4948495;28;8688;-62
2023/11/22 00:14:06;;;;;;;;;;;;;;;25.84;41.23;94265.56;4948174;28;6956;-61
2023/11/22 00:16:32;;;;;;;;;;;;;;;25.82;41.41;94273.59;5029268;28;9388;-61
2023/11/22 00:18:58;;;;;;;;;;;;;;;25.84;40.83;94271.06;5052638;28;8751;-62
2023/11/22 00:21:25;;;;;;;;;;;;;;;25.82;41.26;94273.59;5057636;28;9061;-61
2023/11/22 00:23:51;;;;;;;;;;;;;;;25.79;40.75;94282.16;5047552;28;7158;-61
2023/11/22 00:26:17;;;;;;;;;;;;;;;25.79;41.72;94279.41;5045914;28;9040;-61
2023/11/22 00:28:43;;;;;;;;;;;;;;;25.73;40.83;94275.97;5049000;28;7305;-61
2023/11/22 00:31:14;;;;;;;;;;;;;;;25.74;41.64;94288.47;5048502;28;9165;-61
2023/11/22 00:33:40;;;;;;;;;;;;;;;25.71;41.91;94287.47;5058694;28;7397;-61
2023/11/22 00:36:17;;;;;;;;;;;;;;;25.67;41.06;94281.50;5051100;28;8712;-61
2023/11/22 00:38:50;;;;;;;;;;;;;;;25.69;41.63;94280.97;5047862;28;7011;-62
2023/11/22 00:41:25;;;;;;;;;;;;;;;25.71;40.91;94286.75;5048395;28;9102;-62
2023/11/22 00:44:23;;;;;;;;;;;;;;;25.68;41.26;94285.75;5041811;28;7294;-62
2023/11/22 00:47:06;;;;;;;;;;;;;;;25.70;41.64;94285.25;4993921;28;9054;-62
2023/11/22 00:49:48;;;;;;;;;;;;;;;25.68;41.57;94285.75;5010748;28;7183;-61
2023/11/22 00:52:24;;;;;;;;;;;;;;;25.71;41.31;94295.00;5005644;28;6996;-62
2023/11/22 00:55:08;;;;;;;;;;;;;;;25.73;41.58;94298.72;4988046;28;7016;-62
2023/11/22 00:57:36;;;;;;;;;;;;;;;25.72;41.80;94308.25;5004380;28;7302;-62
2023/11/22 01:00:18;;;;;;;;;;;;;;;25.71;41.23;94306.75;4978086;28;9166;-62
2023/11/22 01:02:44;;;;;;;;;;;;;;;25.72;40.91;94304.75;5001480;28;7984;-64
2023/11/22 01:05:24;;;;;;;;;;;;;;;25.68;41.75;94302.28;5002372;28;7661;-63
2023/11/22 01:08:35;;;;;;;;;;;;;;;25.67;41.06;94306.28;4992210;28;6993;-63
2023/11/22 01:11:27;;;;;;;;;;;;;;;25.67;41.72;94305.53;5010979;28;8238;-63
2023/11/22 01:14:38;;;;;;;;;;;;;;;25.69;41.50;94314.03;4982615;28;9106;-63
2023/11/22 01:17:12;;;;;;;;;;;;;;;25.69;41.01;94314.78;4982814;28;7136;-63
2023/11/22 01:20:14;;;;;;;;;;;;;;;25.65;41.88;94319.84;4974419;28;7028;-63
2023/11/22 01:22:55;;;;;;;;;;;;;;;25.65;41.93;94308.81;4989807;28;8747;-63
2023/11/22 01:25:21;;;;;;;;;;;;;;;25.60;41.44;94309.59;4996747;28;7109;-63
2023/11/22 01:27:50;;;;;;;;;;;;;;;25.62;41.82;94318.09;5014007;28;7216;-63
2023/11/22 01:30:20;;;;;;;;;;;;;;;25.63;40.97;94316.09;5013576;28;7089;-63
2023/11/22 01:33:24;;;;;;;;;;;;;;;25.62;41.19;94315.34;5003892;28;7478;-63
2023/11/22 01:36:19;;;;;;;;;;;;;;;25.63;41.11;94310.59;4996524;28;9357;-63
2023/11/22 01:38:47;;;;;;;;;;;;;;;25.59;41.24;94316.38;4990280;28;7231;-63
2023/11/22 01:41:34;;;;;;;;;;;;;;;25.59;41.19;94316.38;5008203;28;7276;-62
2023/11/22 01:44:00;;;;;;;;;;;;;;;25.58;41.52;94319.66;5007571;28;7208;-62
2023/11/22 01:46:43;;;;;;;;;;;;;;;25.61;41.82;94322.13;4995509;28;8768;-63
2023/11/22 01:49:10;;;;;;;;;;;;;;;25.61;41.95;94316.63;5000467;28;8942;-63
2023/11/22 01:51:39;;;;;;;;;;;;;;;25.63;41.13;94310.59;5004032;28;8739;-62
2023/11/22 01:54:08;;;;;;;;;;;;;;;25.63;41.00;94314.09;5037118;28;7267;-62
2023/11/22 01:56:39;;;;;;;;;;;;;;;25.67;40.90;94316.56;5035246;28;9065;-63
2023/11/22 01:59:45;;;;;;;;;;;;;;;25.65;41.76;94317.06;5050613;28;7177;-63
2023/11/22 02:02:23;;;;;;;;;;;;;;;25.58;41.96;94320.38;4990691;28;7543;-62
2023/11/22 02:04:59;;;;;;;;;;;;;;;25.61;41.56;94319.38;4996537;28;7083;-62
2023/11/22 02:07:28;;;;;;;;;;;;;;;25.60;41.44;94325.41;4992945;28;7222;-62
2023/11/22 02:10:17;;;;;;;;;;;;;;;25.61;41.94;94318.63;4981665;28;8742;-63
2023/11/22 02:13:13;;;;;;;;;;;;;;;25.63;41.53;94314.09;4994518;28;7009;-61
2023/11/22 02:15:41;;;;;;;;;;;;;;;25.64;41.20;94312.84;4966803;28;9651;-61
2023/11/22 02:18:09;;;;;;;;;;;;;;;25.61;41.32;94324.13;4951537;28;7042;-61
2023/11/22 02:20:35;;;;;;;;;;;;;;;25.62;41.87;94331.13;4966916;28;9264;-61
2023/11/22 02:23:08;;;;;;;;;;;;;;;25.56;41.83;94328.41;4973320;28;7173;-61
2023/11/22 02:25:35;;;;;;;;;;;;;;;25.54;41.23;94336.44;4967829;28;9540;-62
2023/11/22 02:28:21;;;;;;;;;;;;;;;25.58;41.68;94328.66;4973687;28;9236;-61
2023/11/22 02:30:48;;;;;;;;;;;;;;;25.56;41.14;94327.66;4972582;28;6990;-61
2023/11/22 02:33:24;;;;;;;;;;;;;;;25.57;41.82;94318.91;4963278;28;8773;-62
2023/11/22 02:36:01;;;;;;;;;;;;;;;25.62;41.87;94333.91;4994133;28;7464;-62
2023/11/22 02:38:40;;;;;;;;;;;;;;;25.63;41.16;94332.63;5042433;28;7150;-61
2023/11/22 02:41:09;;;;;;;;;;;;;;;25.61;41.97;94335.91;5026937;28;7412;-62
2023/11/22 02:43:52;;;;;;;;;;;;;;;25.58;41.63;94342.41;5051323;28;7342;-61
2023/11/22 02:46:36;;;;;;;;;;;;;;;25.55;41.90;94337.94;5019635;28;7191;-61
2023/11/22 02:49:11;;;;;;;;;;;;;;;25.53;41.95;94340.47;5026666;28;9299;-62
2023/11/22 02:51:42;;;;;;;;;;;;;;;25.56;41.54;94339.44;5038842;28;7313;-61
2023/11/22 02:54:40;;;;;;;;;;;;;;;25.56;41.15;94341.44;5051176;28;7151;-61
2023/11/22 02:57:09;;;;;;;;;;;;;;;25.52;41.39;94344.47;5059378;28;6993;-62
2023/11/22 02:59:35;;;;;;;;;;;;;;;25.47;41.92;94336.25;5053592;28;7014;-61
2023/11/22 03:02:01;;;;;;;;;;;;;;;25.47;41.74;94348.00;5051369;28;8789;-62
2023/11/22 03:04:28;;;;;;;;;;;;;;;25.51;41.37;94348.50;5061543;28;8745;-62
2023/11/22 03:06:55;;;;;;;;;;;;;;;25.52;41.13;94352.72;5049874;28;7372;-61
2023/11/22 03:09:23;;;;;;;;;;;;;;;25.47;41.20;94347.28;5060652;28;7188;-61
2023/11/22 03:11:49;;;;;;;;;;;;;;;25.46;42.08;94351.28;5057098;28;6979;-61
2023/11/22 03:14:32;;;;;;;;;;;;;;;25.44;41.34;94346.28;5060447;28;7247;-62
2023/11/22 03:17:03;;;;;;;;;;;;;;;25.50;41.18;94351.75;5042849;28;8764;-61
2023/11/22 03:19:34;;;;;;;;;;;;;;;25.46;41.93;94354.03;5066643;28;9179;-61
2023/11/22 03:22:39;;;;;;;;;;;;;;;25.44;41.18;94354.53;5043153;28;9105;-62
2023/11/22 03:25:06;;;;;;;;;;;;;;;25.46;42.01;94352.03;5052759;28;9148;-63
2023/11/22 03:28:01;;;;;;;;;;;;;;;25.47;41.25;94359.00;5035002;28;7137;-63
2023/11/22 03:30:59;;;;;;;;;;;;;;;25.43;41.55;94362.06;5010470;28;6973;-63
2023/11/22 03:33:25;;;;;;;;;;;;;;;25.41;41.40;94353.53;5002559;28;8830;-63
2023/11/22 03:36:22;;;;;;;;;;;;;;;25.40;41.59;94362.31;4992369;28;7473;-62
2023/11/22 03:38:58;;;;;;;;;;;;;;;25.39;41.20;94358.03;4952832;28;7010;-62
2023/11/22 03:42:02;;;;;;;;;;;;;;;25.39;41.37;94367.06;4953223;29;9972;-63
2023/11/22 03:44:43;;;;;;;;;;;;;;;25.45;42.16;94367.03;4929525;29;9113;-62
2023/11/22 03:47:18;;;;;;;;;;;;;;;25.43;41.38;94369.56;4942016;29;7270;-63
2023/11/22 03:49:52;;;;;;;;;;;;;;;25.39;41.91;94367.06;4950278;29;8828;-63
2023/11/22 03:53:12;;;;;;;;;;;;;;;25.41;41.61;94372.03;4936860;29;7248;-63
2023/11/22 03:55:49;;;;;;;;;;;;;;;25.40;41.81;94373.31;4891260;29;7010;-63
2023/11/22 03:58:18;;;;;;;;;;;;;;;25.39;42.22;94377.31;4880258;29;8859;-63
2023/11/22 04:00:54;;;;;;;;;;;;;;;25.36;42.09;94370.06;4883470;29;7374;-63
2023/11/22 04:03:33;;;;;;;;;;;;;;;25.35;41.49;94374.09;4894463;29;7428;-62
2023/11/22 04:05:59;;;;;;;;;;;;;;;25.31;41.44;94373.63;4891200;29;8764;-62
2023/11/22 04:08:27;;;;;;;;;;;;;;;25.33;41.47;94380.13;4928363;29;7011;-62
2023/11/22 04:11:00;;;;;;;;;;;;;;;25.33;42.33;94382.09;4929061;29;9273;-62
2023/11/22 04:13:27;;;;;;;;;;;;;;;25.32;42.53;94375.09;4914219;29;7365;-63
2023/11/22 04:15:55;;;;;;;;;;;;;;;25.29;41.87;94376.13;4956947;28;7248;-63
2023/11/22 04:18:21;;;;;;;;;;;;;;;25.28;42.36;94380.88;4991150;28;7308;-63
2023/11/22 04:20:47;;;;;;;;;;;;;;;25.30;41.45;94380.38;4975467;28;9034;-63
2023/11/22 04:23:14;;;;;;;;;;;;;;;25.31;41.63;94390.13;4987601;28;7173;-63
2023/11/22 04:25:41;;;;;;;;;;;;;;;25.32;41.93;94391.63;4992178;28;7505;-63
2023/11/22 04:28:09;;;;;;;;;;;;;;;25.32;42.28;94400.63;4992009;28;8780;-63
2023/11/22 04:30:40;;;;;;;;;;;;;;;25.31;42.27;94399.16;5048527;28;8743;-63
2023/11/22 04:33:06;;;;;;;;;;;;;;;25.28;41.45;94397.41;5046297;28;8788;-57
2023/11/22 04:35:36;;;;;;;;;;;;;;;25.30;42.00;94410.66;5047846;28;8763;-57
2023/11/22 04:38:03;;;;;;;;;;;;;;;25.29;41.62;94415.41;5050736;28;9069;-57
2023/11/22 04:40:30;;;;;;;;;;;;;;;25.28;41.83;94410.41;5046673;28;8778;-57
2023/11/22 04:42:56;;;;;;;;;;;;;;;25.29;42.33;94403.66;5050977;28;7285;-57
2023/11/22 04:45:26;;;;;;;;;;;;;;;25.27;42.09;94411.69;5052016;28;6964;-57
2023/11/22 04:47:56;;;;;;;;;;;;;;;25.27;42.57;94412.41;5041252;28;7432;-57
2023/11/22 04:50:24;;;;;;;;;;;;;;;25.28;41.49;94416.66;5058567;28;7422;-57
2023/11/22 04:52:53;;;;;;;;;;;;;;;25.28;41.65;94419.44;5061530;28;6976;-57
2023/11/22 04:55:19;;;;;;;;;;;;;;;25.29;41.42;94420.19;5068517;28;9124;-57
2023/11/22 04:57:52;;;;;;;;;;;;;;;25.28;41.76;94418.66;5047769;28;7250;-57
2023/11/22 05:00:23;;;;;;;;;;;;;;;25.26;42.14;94421.19;5044543;28;7288;-57
2023/11/22 05:03:18;;;;;;;;;;;;;;;25.28;42.33;94418.66;5052181;28;7388;-57
2023/11/22 05:05:44;;;;;;;;;;;;;;;25.24;41.62;94413.44;5013510;28;7324;-57
2023/11/22 05:08:47;;;;;;;;;;;;;;;25.26;41.54;94429.44;5011200;28;9118;-57
2023/11/22 05:11:15;;;;;;;;;;;;;;;25.26;41.61;94423.94;4969239;28;7641;-57
2023/11/22 05:14:04;;;;;;;;;;;;;;;25.29;41.39;94433.94;4958782;28;7051;-57
2023/11/22 05:16:30;;;;;;;;;;;;;;;25.26;41.77;94438.44;4955664;28;7304;-57
2023/11/22 05:19:10;;;;;;;;;;;;;;;25.27;42.34;94439.22;4974325;28;7249;-57
2023/11/22 05:21:48;;;;;;;;;;;;;;;25.24;42.45;94442.97;4966267;28;7242;-57
2023/11/22 05:24:15;;;;;;;;;;;;;;;25.27;41.40;94442.69;4973500;28;6993;-57
2023/11/22 05:27:07;;;;;;;;;;;;;;;25.29;41.63;94447.72;4963687;28;8705;-57
2023/11/22 05:29:46;;;;;;;;;;;;;;;25.29;42.39;94453.22;4970751;28;8815;-57
2023/11/22 05:32:22;;;;;;;;;;;;;;;25.30;42.12;94462.97;4962694;28;8209;-57
2023/11/22 05:35:43;;;;;;;;;;;;;;;25.36;41.48;94469.19;4972091;28;7305;-57
2023/11/22 05:38:23;;;;;;;;;;;;;;;25.39;42.34;94471.69;4898053;29;8794;-57
2023/11/22 05:40:49;;;;;;;;;;;;;;;25.41;41.62;94468.41;4889673;29;8740;-57
2023/11/22 05:43:22;;;;;;;;;;;;;;;25.45;42.24;94477.19;4894664;29;6986;-56
2023/11/22 05:45:51;;;;;;;;;;;;;;;25.49;41.94;94482.44;4972455;28;10325;-56
2023/11/22 05:48:22;;;;;;;;;;;;;;;25.48;41.57;94483.69;4995520;28;7057;-55
2023/11/22 05:50:58;;;;;;;;;;;;;;;25.48;42.05;94489.94;4975560;28;7200;-56
2023/11/22 05:53:35;;;;;;;;;;;;;;;25.47;42.50;94484.97;4984069;28;9194;-55
2023/11/22 05:56:11;;;;;;;;;;;;;;;25.50;42.00;94486.69;4991627;28;8166;-56
2023/11/22 05:59:05;;;;;;;;;;;;;;;25.53;41.59;94491.94;4988878;28;7000;-56
2023/11/22 06:01:47;;;;;;;;;;;;;;;25.56;41.34;94493.66;4992120;28;7176;-55
2023/11/22 06:05:00;;;;;;;;;;;;;;;25.62;41.23;94494.38;4987065;28;7104;-56
2023/11/22 06:07:28;;;;;;;;;;;;;;;25.63;41.61;94495.13;4969697;28;8745;-56
2023/11/22 06:10:27;;;;;;;;;;;;;;;25.66;40.48;94497.63;4956346;28;8795;-56
2023/11/22 06:13:13;;;;;;;;;;;;;;;25.65;40.41;94496.13;4950507;28;7256;-56
2023/11/22 06:15:49;;;;;;;;;;;;;;;25.71;40.40;94490.59;4953279;28;7046;-56
2023/11/22 06:18:53;;;;;;;;;;;;;;;25.73;40.69;94501.84;4933723;29;9564;-56
2023/11/22 06:21:40;;;;;;;;;;;;;;;25.76;40.97;94500.81;4945083;28;7322;-56
2023/11/22 06:24:25;;;;;;;;;;;;;;;25.73;40.39;94505.34;4953371;28;7121;-56
2023/11/22 06:26:53;;;;;;;;;;;;;;;25.76;40.97;94509.09;4936863;28;8853;-56
2023/11/22 06:29:20;;;;;;;;;;;;;;;25.78;40.11;94503.81;4930522;28;8789;-56
2023/11/22 06:31:47;;;;;;;;;;;;;;;25.78;40.88;94507.31;4937016;28;7282;-56
2023/11/22 06:34:14;;;;;;;;;;;;;;;25.77;40.59;94505.09;4937224;28;7218;-56
2023/11/22 06:37:02;;;;;;;;;;;;;;;25.76;40.51;94512.59;4952740;28;6996;-56
2023/11/22 06:39:44;;;;;;;;;;;;;;;25.78;40.52;94504.56;4942837;28;7003;-56
2023/11/22 06:42:44;;;;;;;;;;;;;;;25.76;41.09;94504.34;4946797;28;7301;-56
2023/11/22 06:45:41;;;;;;;;;;;;;;;25.76;40.85;94511.84;4909406;29;8990;-56
2023/11/22 06:48:38;;;;;;;;;;;;;;;25.76;40.46;94529.13;4921265;29;8310;-56
2023/11/22 06:51:04;;;;;;;;;;;;;;;25.74;41.16;94528.88;4935911;28;6968;-56
2023/11/22 06:53:38;;;;;;;;;;;;;;;25.74;41.02;94530.88;4950397;28;9133;-57
2023/11/22 06:56:20;;;;;;;;;;;;;;;25.73;40.90;94538.41;4968424;28;7344;-57
2023/11/22 06:58:46;;;;;;;;;;;;;;;25.73;40.36;94540.44;4955800;28;7166;-56
2023/11/22 07:01:49;;;;;;;;;;;;;;;25.76;40.59;94539.41;4968471;28;9011;-56
2023/11/22 07:04:24;;;;;;;;;;;;;;;25.75;40.46;94538.63;4965302;28;7305;-56
2023/11/22 07:07:02;;;;;;;;;;;;;;;25.74;40.19;94548.19;4967476;28;7203;-57
2023/11/22 07:09:42;;;;;;;;;;;;;;;25.76;40.53;94542.16;4970760;28;7598;-57
2023/11/22 07:12:39;;;;;;;;;;;;;;;25.75;41.01;94546.91;4968290;28;6858;-57
2023/11/22 07:15:07;;;;;;;;;;;;;;;25.73;41.03;94548.69;4964519;28;7178;-57
2023/11/22 07:18:24;;;;;;;;;;;;;;;25.75;40.42;94562.72;4953432;28;7877;-57
2023/11/22 07:20:57;;;;;;;;;;;;;;;25.75;41.06;94571.69;4928685;28;7204;-57
2023/11/22 07:23:41;;;;;;;;;;;;;;;25.76;40.85;94578.72;4995384;28;7239;-57
2023/11/22 07:26:20;;;;;;;;;;;;;;;25.77;40.68;94573.97;4958009;28;6996;-56
2023/11/22 07:28:55;;;;;;;;;;;;;;;25.73;40.79;94579.72;4950978;28;9112;-57
2023/11/22 07:31:22;;;;;;;;;;;;;;;25.75;40.88;94579.25;4954833;28;7265;-57
2023/11/22 07:33:48;;;;;;;;;;;;;;;25.75;40.97;94584.75;4953287;28;9066;-57
2023/11/22 07:36:41;;;;;;;;;;;;;;;25.78;40.82;94601.00;4949350;28;7200;-57
2023/11/22 07:39:08;;;;;;;;;;;;;;;25.76;41.15;94598.00;4968559;28;7198;-57
2023/11/22 07:41:54;;;;;;;;;;;;;;;25.80;40.21;94601.25;4960734;28;9148;-57
2023/11/22 07:44:37;;;;;;;;;;;;;;;25.80;40.53;94606.75;4959494;28;9192;-57
2023/11/22 07:47:24;;;;;;;;;;;;;;;25.81;40.50;94608.25;4971514;28;8478;-57
2023/11/22 07:49:58;;;;;;;;;;;;;;;25.83;41.19;94614.03;4955450;28;9139;-57
2023/11/22 07:52:50;;;;;;;;;;;;;;;25.84;40.89;94612.00;4958481;28;7329;-57
2023/11/22 07:55:18;;;;;;;;;;;;;;;25.81;40.70;94607.50;4990777;28;9194;-56
2023/11/22 07:57:57;;;;;;;;;;;;;;;25.75;41.10;94615.06;5069673;28;8231;-57
2023/11/22 08:00:23;;;;;;;;;;;;;;;25.76;40.38;94622.81;5047090;28;7321;-56
2023/11/22 08:03:02;;;;;;;;;;;;;;;25.75;40.35;94621.28;5037165;28;7498;-64
2023/11/22 08:05:36;;;;;;;;;;;;;;;25.78;40.51;94630.56;5048892;28;7185;-64
2023/11/22 08:08:07;;;;;;;;;;;;;;;25.77;41.12;94637.34;5053588;28;6989;-64
2023/11/22 08:10:53;;;;;;;;;;;;;;;25.74;40.88;94630.06;5055106;28;7301;-64
2023/11/22 08:13:22;;;;;;;;;;;;;;;25.74;41.18;94646.59;5045293;28;7239;-64
2023/11/22 08:15:50;;;;;;;;;;;;;;;25.74;40.61;94657.63;5054626;28;7026;-64
2023/11/22 08:18:30;;;;;;;;;;;;;;;25.73;40.64;94656.13;5054665;28;7054;-64
2023/11/22 08:20:58;;;;;;;;;;;;;;;25.75;41.34;94659.13;5051565;28;9102;-64
2023/11/22 08:23:59;;;;;;;;;;;;;;;25.72;40.77;94666.41;5055143;28;7259;-64
2023/11/22 08:26:28;;;;;;;;;;;;;;;25.73;41.02;94672.66;5051171;28;7191;-64
2023/11/22 08:28:56;;;;;;;;;;;;;;;25.70;41.67;94668.16;5070416;28;9197;-64
2023/11/22 08:31:27;;;;;;;;;;;;;;;25.70;40.88;94674.41;5055731;28;8829;-64
2023/11/22 08:34:06;;;;;;;;;;;;;;;25.68;41.22;94670.66;5054738;28;7240;-64
2023/11/22 08:36:59;;;;;;;;;;;;;;;25.72;41.67;94677.41;5054796;28;7112;-64
2023/11/22 08:39:58;;;;;;;;;;;;;;;25.73;41.44;94695.44;5048383;28;7381;-64
2023/11/22 08:42:28;;;;;;;;;;;;;;;25.73;41.21;94689.19;5022582;28;9541;-64
2023/11/22 08:45:05;;;;;;;;;;;;;;;25.75;41.38;94694.94;5009167;28;7257;-64
2023/11/22 08:47:46;;;;;;;;;;;;;;;25.73;41.11;94694.72;5040048;28;7253;-64
2023/11/22 08:50:12;;;;;;;;;;;;;;;25.72;40.99;94688.44;5008143;28;7219;-65
2023/11/22 08:52:52;;;;;;;;;;;;;;;25.72;41.32;94691.19;5027532;28;7111;-64
2023/11/22 08:55:23;;;;;;;;;;;;;;;25.71;41.52;94695.19;5025022;28;7065;-64
2023/11/22 08:57:52;;;;;;;;;;;;;;;25.72;40.98;94704.97;5013353;28;7059;-65
2023/11/22 09:00:27;;;;;;;;;;;;;;;25.73;41.19;94700.22;5010216;28;7308;-65
2023/11/22 09:03:12;;;;;;;;;;;;;;;25.72;40.97;94715.22;5029250;28;8778;-64
2023/11/22 09:05:52;;;;;;;;;;;;;;;25.69;40.88;94711.47;5029748;28;8463;-64
2023/11/22 09:09:09;;;;;;;;;;;;;;;25.73;41.66;94725.00;5013490;28;7277;-64
2023/11/22 09:11:44;;;;;;;;;;;;;;;25.72;41.00;94716.00;4998642;28;7547;-64
2023/11/22 09:14:12;;;;;;;;;;;;;;;25.70;40.97;94718.50;4988771;28;9177;-61
2023/11/22 09:16:39;;;;;;;;;;;;;;;25.71;40.75;94725.50;4984171;28;9281;-61
2023/11/22 09:19:22;;;;;;;;;;;;;;;25.71;41.10;94719.25;5019988;28;7221;-61
2023/11/22 09:21:48;;;;;;;;;;;;;;;25.70;40.85;94724.00;5030759;28;7252;-60
2023/11/22 09:24:44;;;;;;;;;;;;;;;25.70;40.89;94735.03;5028786;28;7266;-61
2023/11/22 09:27:26;;;;;;;;;;;;;;;25.70;40.97;94740.53;4947834;28;7363;-61
2023/11/22 09:30:05;;;;;;;;;;;;;;;25.71;40.85;94746.81;4953038;28;9046;-61
2023/11/22 09:32:43;;;;;;;;;;;;;;;25.70;41.28;94745.28;4942794;28;8768;-61
2023/11/22 09:35:10;;;;;;;;;;;;;;;25.66;41.68;94739.28;4947571;28;7210;-61
2023/11/22 09:37:51;;;;;;;;;;;;;;;25.69;41.60;94752.03;4954664;28;8248;-61
2023/11/22 09:40:32;;;;;;;;;;;;;;;25.69;41.57;94750.03;4947870;28;7340;-60
2023/11/22 09:43:17;;;;;;;;;;;;;;;25.69;41.39;94744.53;4959848;28;8983;-60
2023/11/22 09:46:15;;;;;;;;;;;;;;;25.70;41.11;94754.31;4953115;28;7313;-60
2023/11/22 09:48:46;;;;;;;;;;;;;;;25.66;41.20;94753.06;4967670;28;9054;-61
2023/11/22 09:51:22;;;;;;;;;;;;;;;25.67;41.62;94747.03;4986936;28;7454;-60
2023/11/22 09:54:07;;;;;;;;;;;;;;;25.64;41.78;94747.31;4999824;28;8069;-60
2023/11/22 09:56:36;;;;;;;;;;;;;;;25.66;41.44;94742.81;4989069;28;7294;-60
2023/11/22 09:59:24;;;;;;;;;;;;;;;25.66;41.83;94745.56;4980501;28;8734;-60
2023/11/22 10:01:59;;;;;;;;;;;;;;;25.64;41.53;94748.06;4977282;28;7194;-60
2023/11/22 10:04:27;;;;;;;;;;;;;;;25.64;42.22;94739.81;5030391;28;9110;-60
2023/11/22 10:07:03;;;;;;;;;;;;;;;25.67;42.35;94738.78;5048602;28;7418;-60
2023/11/22 10:09:29;;;;;;;;;;;;;;;25.66;41.47;94740.06;5052524;28;9153;-60
2023/11/22 10:12:05;;;;;;;;;;;;;;;25.64;42.03;94728.03;5058177;28;9412;-60
2023/11/22 10:14:34;;;;;;;;;;;;;;;25.68;41.42;94721.00;5046549;28;7189;-60
2023/11/22 10:17:10;;;;;;;;;;;;;;;25.63;42.53;94719.00;5038760;28;6860;-60
2023/11/22 10:19:40;;;;;;;;;;;;;;;25.60;43.10;94722.75;5066329;28;7215;-60
2023/11/22 10:22:09;;;;;;;;;;;;;;;25.55;43.20;94722.78;5052101;28;8901;-55
2023/11/22 10:24:48;;;;;;;;;;;;;;;25.51;43.40;94728.56;5050274;28;7307;-55
2023/11/22 10:27:29;;;;;;;;;;;;;;;25.48;43.13;94732.28;5044429;28;9105;-55
2023/11/22 10:29:58;;;;;;;;;;;;;;;25.49;42.87;94733.06;5044866;28;6917;-55
2023/11/22 10:32:57;;;;;;;;;;;;;;;25.47;43.72;94736.28;5049046;28;7193;-54
2023/11/22 10:35:46;;;;;;;;;;;;;;;25.45;43.53;94730.53;5034726;28;7150;-54
2023/11/22 10:38:20;;;;;;;;;;;;;;;25.45;44.03;94740.81;5047325;28;8427;-55
2023/11/22 10:40:55;;;;;;;;;;;;;;;25.47;43.53;94744.56;5032144;28;7350;-55
2023/11/22 10:43:34;;;;;;;;;;;;;;;25.45;43.54;94740.81;5032945;28;7152;-54
2023/11/22 10:46:06;;;;;;;;;;;;;;;25.46;44.09;94745.06;5049846;28;7076;-55
2023/11/22 10:48:35;;;;;;;;;;;;;;;25.45;44.55;94736.03;5049867;28;9088;-55
2023/11/22 10:51:04;;;;;;;;;;;;;;;25.47;43.71;94747.31;5016943;28;7261;-55
2023/11/22 10:53:46;;;;;;;;;;;;;;;25.48;44.00;94751.56;5034177;28;8757;-53
2023/11/22 10:56:19;;;;;;;;;;;;;;;25.46;44.74;94737.56;5033570;28;7238;-55
2023/11/22 10:58:57;;;;;;;;;;;;;;;25.45;44.41;94752.56;5033955;28;6908;-54
2023/11/22 11:01:34;;;;;;;;;;;;;;;25.45;44.36;94752.56;5037193;28;7235;-55
2023/11/22 11:04:11;;;;;;;;;;;;;;;25.43;44.77;94749.56;5047050;28;7243;-54
2023/11/22 11:06:53;;;;;;;;;;;;;;;25.46;44.76;94753.31;5033140;28;7284;-55
2023/11/22 11:09:36;;;;;;;;;;;;;;;25.48;44.87;94739.78;5043968;28;7242;-55
2023/11/22 11:12:04;;;;;;;;;;;;;;;25.48;44.62;94745.31;5047767;28;7262;-55
2023/11/22 11:14:47;;;;;;;;;;;;;;;25.46;44.05;94747.81;5053142;28;7364;-55
2023/11/22 11:17:17;;;;;;;;;;;;;;;25.43;44.55;94753.06;5044785;28;7174;-55
2023/11/22 11:19:43;;;;;;;;;;;;;;;25.48;44.60;94754.31;5044852;28;8750;-55
2023/11/22 11:22:39;;;;;;;;;;;;;;;25.50;44.02;94757.31;5051016;28;7188;-55
2023/11/22 11:25:08;;;;;;;;;;;;;;;25.51;44.74;94755.34;5035068;28;7162;-55
2023/11/22 11:27:57;;;;;;;;;;;;;;;25.49;44.06;94763.34;5047291;28;7151;-55
2023/11/22 11:30:45;;;;;;;;;;;;;;;25.58;43.66;94774.84;5053808;28;7331;-55
2023/11/22 11:33:51;;;;;;;;;;;;;;;25.56;44.34;94777.34;5063135;28;8826;-55
2023/11/22 11:36:45;;;;;;;;;;;;;;;25.60;43.56;94768.84;5010254;28;7236;-55
2023/11/22 11:39:38;;;;;;;;;;;;;;;25.61;44.13;94764.84;4996523;28;8311;-55
2023/11/22 11:42:24;;;;;;;;;;;;;;;25.62;43.81;94766.34;4998286;28;7744;-54
2023/11/22 11:45:13;;;;;;;;;;;;;;;25.60;43.49;94768.84;4993926;28;7097;-54
2023/11/22 11:47:51;;;;;;;;;;;;;;;25.58;44.29;94774.13;5021813;28;7235;-55
2023/11/22 11:50:20;;;;;;;;;;;;;;;25.57;43.67;94789.88;4998128;28;9445;-54
2023/11/22 11:52:53;;;;;;;;;;;;;;;25.65;43.57;94792.88;5017130;28;7275;-55
2023/11/22 11:55:20;;;;;;;;;;;;;;;25.66;43.93;94791.63;5011435;28;8854;-54
2023/11/22 11:58:05;;;;;;;;;;;;;;;25.64;43.95;94797.66;5001727;28;7189;-54
2023/11/22 12:00:31;;;;;;;;;;;;;;;25.65;43.78;94798.38;5017575;28;6957;-55
2023/11/22 12:03:21;;;;;;;;;;;;;;;25.67;43.53;94798.63;4986178;28;7165;-54
2023/11/22 12:06:20;;;;;;;;;;;;;;;25.66;43.63;94789.63;5006859;28;7246;-54
2023/11/22 12:08:57;;;;;;;;;;;;;;;25.66;42.92;94795.16;5013597;28;7013;-53
2023/11/22 12:11:23;;;;;;;;;;;;;;;25.66;43.14;94789.63;4997669;28;8814;-53
2023/11/22 12:13:54;;;;;;;;;;;;;;;25.69;43.14;94782.34;5045919;28;7260;-55
2023/11/22 12:16:35;;;;;;;;;;;;;;;25.72;43.08;94776.59;5046980;28;6993;-53
2023/11/22 12:19:05;;;;;;;;;;;;;;;25.72;42.94;94773.09;5046940;28;7025;-55
2023/11/22 12:21:33;;;;;;;;;;;;;;;25.73;43.97;94772.56;5047716;28;7257;-55
2023/11/22 12:24:07;;;;;;;;;;;;;;;25.74;44.13;94765.84;5046807;28;7136;-55
2023/11/22 12:26:34;;;;;;;;;;;;;;;25.71;43.95;94769.56;5053503;28;8944;-55
2023/11/22 12:29:08;;;;;;;;;;;;;;;25.72;43.27;94781.34;5045409;28;7198;-55
2023/11/22 12:31:50;;;;;;;;;;;;;;;25.74;43.04;94767.81;5054336;28;7445;-55
2023/11/22 12:34:20;;;;;;;;;;;;;;;25.73;42.96;94767.06;5060097;28;9001;-54
2023/11/22 12:36:48;;;;;;;;;;;;;;;25.73;42.52;94769.81;5049625;28;7776;-55
2023/11/22 12:43:20;;;;;;;;;;;;;;;25.73;42.25;94775.34;5038335;28;8511;-60
2023/11/22 12:45:59;;;;;;;;;;;;;;;25.71;41.49;94768.84;5027101;28;7410;-60
2023/11/22 12:49:20;;;;;;;;;;;;;;;25.67;41.38;94774.59;5030912;28;9102;-60
2023/11/22 12:51:57;;;;;;;;;;;;;;;25.66;41.46;94788.88;5029170;28;7309;-60
2023/11/22 12:54:40;;;;;;;;;;;;;;;25.63;41.73;94785.13;5039137;28;9138;-60
2023/11/22 12:57:55;;;;;;;;;;;;;;;25.64;42.43;94799.66;5029179;28;9158;-60
2023/11/22 13:00:57;;;;;;;;;;;;;;;25.60;41.72;94808.16;5008534;28;7518;-60
2023/11/22 13:03:39;;;;;;;;;;;;;;;25.56;41.89;94809.66;4942650;28;7175;-60
2023/11/22 13:06:10;;;;;;;;;;;;;;;25.49;41.94;94819.16;4954037;28;7248;-60
2023/11/22 13:09:14;;;;;;;;;;;;;;;25.48;42.69;94834.19;4937788;28;7498;-60
2023/11/22 13:11:51;;;;;;;;;;;;;;;25.48;42.68;94833.44;4954309;28;8731;-60
2023/11/22 13:14:37;;;;;;;;;;;;;;;25.47;42.78;94829.91;4934926;28;7064;-60
2023/11/22 13:17:06;;;;;;;;;;;;;;;25.43;42.58;94832.19;4938362;28;7184;-60
2023/11/22 13:19:57;;;;;;;;;;;;;;;25.43;43.14;94843.19;4936398;28;8805;-60
2023/11/22 13:22:32;;;;;;;;;;;;;;;25.46;43.13;94841.44;4949810;28;8071;-60
2023/11/22 13:25:21;;;;;;;;;;;;;;;25.46;43.05;94842.22;4952322;28;7253;-60
2023/11/22 13:28:18;;;;;;;;;;;;;;;25.44;43.09;94847.47;4953844;28;7343;-60
2023/11/22 13:31:39;;;;;;;;;;;;;;;25.44;42.63;94844.72;4932227;28;8796;-60
2023/11/22 13:34:17;;;;;;;;;;;;;;;25.42;43.29;94844.47;4923565;29;7250;-60
2023/11/22 13:36:50;;;;;;;;;;;;;;;25.42;43.13;94836.19;4921369;29;7833;-60
2023/11/22 13:39:33;;;;;;;;;;;;;;;25.40;42.78;94822.16;4937071;28;7286;-60
2023/11/22 13:42:12;;;;;;;;;;;;;;;25.42;42.54;94827.94;4989359;28;9427;-60
2023/11/22 13:44:56;;;;;;;;;;;;;;;25.47;42.57;94831.94;4994678;28;6929;-60
2023/11/22 13:47:35;;;;;;;;;;;;;;;25.44;42.34;94833.69;4977622;28;7379;-60
2023/11/22 13:50:29;;;;;;;;;;;;;;;25.41;42.57;94840.16;4995282;28;7120;-60
2023/11/22 13:53:34;;;;;;;;;;;;;;;25.41;42.33;94831.91;4989554;28;6987;-64
2023/11/22 13:56:17;;;;;;;;;;;;;;;25.39;42.94;94839.91;4972511;28;7428;-65
2023/11/22 13:58:43;;;;;;;;;;;;;;;25.44;43.60;94839.19;4980356;28;7003;-64
2023/11/22 14:01:26;;;;;;;;;;;;;;;25.48;42.83;94834.19;4979809;28;7442;-64